Time;durP1;ratioP1;P1;durP2;ratioP2;P2;SDS_P1;SDS_P2;PMS_P1;PMS_P2;Temp;Humidity;BMP_temperature;BMP_pressure;BME280_temperature;BME280_humidity;BME280_pressure;Samples;Min_cycle;Max_cycle;Signal;HPM_P1;HPM_P2
2024/02/26 00:01:13;;;;;;;11.40;5.20;;;;;;;0.16;71.47;100246.08;79241;1303;3013502;-72
2024/02/26 00:03:42;;;;;;;12.30;5.30;;;;;;;0.19;71.19;100243.48;79032;1304;3011840;-71
2024/02/26 00:06:09;;;;;;;12.10;5.40;;;;;;;0.18;71.30;100245.55;77869;1300;3050688;-72
2024/02/26 00:08:36;;;;;;;16.90;6.50;;;;;;;0.22;71.16;100241.39;79133;1300;3012953;-69
2024/02/26 00:11:03;;;;;;;17.30;6.80;;;;;;;0.22;71.03;100234.67;79133;1301;3011558;-70
2024/02/26 00:13:31;;;;;;;16.90;5.80;;;;;;;0.21;71.28;100225.73;77926;1304;3027818;-72
2024/02/26 00:15:58;;;;;;;17.10;6.60;;;;;;;0.18;71.57;100227.11;79757;1304;3013813;-72
2024/02/26 00:18:24;;;;;;;16.50;7.90;;;;;;;0.16;71.42;100221.77;79437;1300;3011540;-69
2024/02/26 00:20:52;;;;;;;26.60;7.80;;;;;;;0.12;71.50;100219.55;78820;1300;3025000;-74
2024/02/26 00:23:19;;;;;;;13.50;7.20;;;;;;;0.09;71.51;100224.59;80250;1300;3012636;-71
2024/02/26 00:25:45;;;;;;;16.00;7.70;;;;;;;0.10;71.75;100224.39;80367;1300;3011627;-69
2024/02/26 00:28:13;;;;;;;22.80;7.20;;;;;;;0.11;71.78;100217.67;78984;1302;3026011;-66
2024/02/26 00:30:40;;;;;;;17.90;6.80;;;;;;;0.07;71.76;100220.11;80066;1304;3018641;-65
2024/02/26 00:33:06;;;;;;;15.90;7.10;;;;;;;0.07;71.97;100221.14;80172;1300;3011660;-68
2024/02/26 00:35:34;;;;;;;19.40;7.60;;;;;;;0.11;71.62;100226.80;79095;1300;3024843;-71
2024/02/26 00:38:03;;;;;;;18.80;6.50;;;;;;;0.05;71.92;100221.66;80334;1300;3015458;-69
2024/02/26 00:40:30;;;;;;;18.20;6.00;;;;;;;0.09;71.90;100219.23;80286;1300;3011581;-71
2024/02/26 00:42:58;;;;;;;13.00;5.80;;;;;;;0.12;71.92;100221.46;78578;1305;3051797;-71
2024/02/26 00:45:24;;;;;;;14.30;5.90;;;;;;;0.14;71.39;100217.14;80440;1305;3013167;-71
2024/02/26 00:47:51;;;;;;;10.50;4.70;;;;;;;0.25;71.26;100217.60;81239;1302;3012078;-73
2024/02/26 00:50:19;;;;;;;12.00;4.90;;;;;;;0.21;71.20;100218.13;79139;1305;3026399;-73
2024/02/26 00:52:46;;;;;;;12.30;4.90;;;;;;;0.22;71.14;100211.41;79376;1302;3018767;-73
2024/02/26 00:55:12;;;;;;;16.60;4.30;;;;;;;0.24;70.92;100212.95;81620;1302;3011836;-71
2024/02/26 00:57:40;;;;;;;13.20;4.70;;;;;;;0.26;71.09;100210.70;78472;1310;3025532;-70
2024/02/26 01:00:10;;;;;;;11.00;4.30;;;;;;;0.17;71.15;100210.75;79139;1306;3013118;-71
2024/02/26 01:02:41;;;;;;;11.20;4.30;;;;;;;0.22;71.49;100207.10;78576;1303;3013312;-70
2024/02/26 01:05:11;;;;;;;11.90;4.70;;;;;;;0.25;71.17;100202.09;79335;1303;3011785;-70
2024/02/26 01:07:39;;;;;;;10.30;3.50;;;;;;;0.21;71.00;100190.23;77963;1306;3052567;-74
2024/02/26 01:10:06;;;;;;;9.30;3.40;;;;;;;0.20;71.04;100189.03;79127;1302;3019142;-69
2024/02/26 01:12:34;;;;;;;18.10;4.60;;;;;;;0.26;71.06;100185.35;78951;1304;3011617;-69
2024/02/26 01:15:05;;;;;;;15.00;4.60;;;;;;;0.23;71.30;100179.69;77961;1303;3048793;-69
2024/02/26 01:17:32;;;;;;;10.30;3.50;;;;;;;0.23;71.23;100182.46;79277;1307;3011398;-69
2024/02/26 01:20:02;;;;;;;24.70;4.10;;;;;;;0.23;71.23;100187.62;78486;1305;3013630;-68
2024/02/26 01:22:28;;;;;;;9.20;4.10;;;;;;;0.22;71.10;100194.18;79170;1305;3013086;-68
2024/02/26 01:24:56;;;;;;;15.60;4.30;;;;;;;0.19;71.45;100195.91;79092;1301;3013476;-69
2024/02/26 01:27:27;;;;;;;13.20;4.40;;;;;;;0.20;71.58;100196.60;77980;1303;3049336;-68
2024/02/26 01:29:55;;;;;;;8.30;4.80;;;;;;;0.13;71.69;100198.02;79102;1303;3011519;-71
2024/02/26 01:32:24;;;;;;;9.70;4.10;;;;;;;0.16;71.63;100191.64;78561;1305;3011956;-70
2024/02/26 01:34:51;;;;;;;14.60;4.70;;;;;;;0.19;71.39;100190.74;79140;1306;3013023;-73
2024/02/26 01:37:19;;;;;;;17.90;6.20;;;;;;;0.16;71.45;100187.16;79027;1302;3011788;-72
2024/02/26 01:39:47;;;;;;;11.70;5.60;;;;;;;0.11;71.32;100189.42;77853;1302;3051066;-72
2024/02/26 01:42:13;;;;;;;14.10;4.40;;;;;;;0.12;71.43;100189.76;79093;1301;3019238;-71
2024/02/26 01:44:40;;;;;;;18.90;4.90;;;;;;;0.11;71.47;100185.80;78920;1306;3013145;-70
2024/02/26 01:47:10;;;;;;;15.10;5.10;;;;;;;0.17;71.34;100184.21;77893;1305;3049575;-68
2024/02/26 01:49:37;;;;;;;9.90;4.70;;;;;;;0.09;71.53;100189.95;79245;1305;3013593;-69
2024/02/26 01:52:04;;;;;;;14.80;4.30;;;;;;;0.09;71.52;100188.40;79002;1304;3011430;-69
2024/02/26 01:54:35;;;;;;;14.60;5.00;;;;;;;0.08;71.79;100187.73;77939;1303;3051061;-72
2024/02/26 01:57:02;;;;;;;17.20;5.10;;;;;;;0.11;71.46;100180.29;79059;1301;3011655;-70
2024/02/26 01:59:32;;;;;;;16.70;6.50;;;;;;;0.11;71.36;100186.48;78510;1303;3011893;-67
2024/02/26 02:01:59;;;;;;;13.20;5.50;;;;;;;0.14;71.05;100186.30;79176;1302;3013236;-67
2024/02/26 02:04:26;;;;;;;17.70;6.10;;;;;;;0.05;71.41;100191.70;79044;1303;3011778;-72
2024/02/26 02:06:54;;;;;;;17.20;6.30;;;;;;;0.00;71.67;100191.39;77796;1308;3051619;-70
2024/02/26 02:09:22;;;;;;;18.90;6.30;;;;;;;0.01;71.82;100188.28;79118;1302;3013234;-69
2024/02/26 02:11:48;;;;;;;16.30;6.00;;;;;;;-0.07;72.06;100186.27;79007;1302;3011576;-72
2024/02/26 02:14:17;;;;;;;19.60;6.20;;;;;;;-0.14;72.39;100185.09;77781;1307;3049753;-66
2024/02/26 02:16:43;;;;;;;14.80;5.50;;;;;;;-0.12;72.19;100185.09;79157;1305;3013198;-73
2024/02/26 02:19:10;;;;;;;14.30;6.40;;;;;;;-0.15;72.60;100185.09;79097;1305;3011644;-71
2024/02/26 02:21:38;;;;;;;24.10;7.10;;;;;;;-0.18;72.27;100183.39;77870;1305;3026897;-70
2024/02/26 02:24:04;;;;;;;11.80;6.40;;;;;;;-0.25;72.72;100176.02;79141;1302;3013096;-72
2024/02/26 02:26:31;;;;;;;13.70;4.80;;;;;;;-0.28;72.92;100176.90;79040;1303;3011872;-67
2024/02/26 02:28:59;;;;;;;16.20;5.40;;;;;;;-0.14;72.65;100180.10;77852;1306;3026081;-73
2024/02/26 02:31:26;;;;;;;12.20;5.40;;;;;;;-0.19;72.62;100178.57;79038;1302;3013880;-72
2024/02/26 02:33:54;;;;;;;17.40;5.20;;;;;;;-0.25;73.04;100176.88;79020;1306;3014031;-70
2024/02/26 02:36:22;;;;;;;13.40;4.70;;;;;;;-0.29;72.79;100173.45;77904;1306;3052280;-71
2024/02/26 02:38:51;;;;;;;16.80;4.70;;;;;;;-0.28;73.28;100175.34;79089;1305;3018738;-69
2024/02/26 02:41:21;;;;;;;12.50;4.40;;;;;;;-0.42;73.87;100171.63;77802;1303;3057403;-66
2024/02/26 02:43:48;;;;;;;14.90;4.20;;;;;;;-0.40;73.79;100172.81;79065;1305;3013463;-67
2024/02/26 02:46:15;;;;;;;14.60;4.70;;;;;;;-0.35;73.91;100174.34;79056;1305;3011613;-68
2024/02/26 02:48:43;;;;;;;8.80;4.00;;;;;;;-0.33;73.52;100171.91;77790;1305;3052325;-69
2024/02/26 02:51:10;;;;;;;9.80;3.60;;;;;;;-0.35;73.86;100174.70;79037;1302;3012920;-69
2024/02/26 02:53:37;;;;;;;17.70;3.20;;;;;;;-0.39;73.97;100174.52;79021;1305;3011449;-69
2024/02/26 02:56:05;;;;;;;12.40;4.40;;;;;;;-0.35;73.49;100168.49;77886;1302;3055664;-68
2024/02/26 02:58:32;;;;;;;12.20;4.00;;;;;;;-0.39;73.74;100164.72;79088;1303;3013848;-70
2024/02/26 03:01:00;;;;;;;24.20;5.90;;;;;;;-0.41;73.70;100168.52;79086;1302;3011695;-69
2024/02/26 03:03:30;;;;;;;15.30;4.70;;;;;;;-0.36;73.70;100169.36;77858;1306;3052310;-70
2024/02/26 03:05:57;;;;;;;9.00;4.10;;;;;;;-0.40;73.95;100169.20;79122;1305;3012886;-71
2024/02/26 03:08:25;;;;;;;11.60;4.00;;;;;;;-0.38;74.25;100167.81;79029;1305;3012292;-71
2024/02/26 03:10:53;;;;;;;30.90;5.70;;;;;;;-0.45;74.34;100169.22;77899;1303;3058452;-70
2024/02/26 03:13:20;;;;;;;22.70;5.00;;;;;;;-0.51;74.44;100161.67;79172;1303;3019064;-70
2024/02/26 03:15:46;;;;;;;14.70;4.10;;;;;;;-0.63;74.83;100155.53;79036;1303;3011838;-72
2024/02/26 03:18:14;;;;;;;24.90;5.10;;;;;;;-0.60;74.73;100154.14;77914;1303;3024816;-71
2024/02/26 03:20:41;;;;;;;15.50;4.00;;;;;;;-0.74;75.08;100151.09;79092;1303;3016011;-72
2024/02/26 03:23:11;;;;;;;16.80;4.00;;;;;;;-0.72;75.56;100147.98;79174;1305;3013125;-74
2024/02/26 03:25:39;;;;;;;19.10;4.00;;;;;;;-0.69;75.24;100149.54;77893;1305;3055718;-71
2024/02/26 03:28:06;;;;;;;17.10;4.20;;;;;;;-0.71;75.34;100148.50;79169;1303;3013282;-71
2024/02/26 03:30:33;;;;;;;13.20;4.10;;;;;;;-0.72;75.12;100157.46;79087;1302;3011965;-67
2024/02/26 03:33:01;;;;;;;16.60;4.30;;;;;;;-0.72;75.24;100156.77;77951;1305;3025768;-72
2024/02/26 03:35:27;;;;;;;20.60;4.80;;;;;;;-0.73;75.36;100159.35;79077;1304;3013205;-69
2024/02/26 03:37:54;;;;;;;21.50;5.60;;;;;;;-0.80;75.51;100153.69;79105;1303;3012416;-69
2024/02/26 03:40:22;;;;;;;27.60;5.00;;;;;;;-0.85;75.59;100151.81;77918;1301;3025940;-68
2024/02/26 03:42:48;;;;;;;11.20;4.60;;;;;;;-0.83;75.27;100150.44;79066;1303;3020679;-70
2024/02/26 03:45:17;;;;;;;13.30;4.30;;;;;;;-0.87;75.59;100153.72;79059;1302;3011720;-71
2024/02/26 03:47:45;;;;;;;18.80;4.50;;;;;;;-0.92;75.72;100149.61;77839;1303;3053309;-71
2024/02/26 03:50:11;;;;;;;15.60;5.30;;;;;;;-0.93;75.72;100149.26;79043;1303;3014823;-70
2024/02/26 03:52:39;;;;;;;17.40;4.50;;;;;;;-0.94;75.59;100152.00;79097;1303;3011815;-70
2024/02/26 03:55:07;;;;;;;23.10;5.00;;;;;;;-0.90;75.63;100154.74;77959;1303;3056273;-69
2024/02/26 03:57:34;;;;;;;19.60;4.50;;;;;;;-0.91;75.63;100147.36;79068;1302;3013625;-71
2024/02/26 04:00:01;;;;;;;15.20;4.80;;;;;;;-0.90;75.75;100153.73;79043;1303;3011532;-71
2024/02/26 04:02:29;;;;;;;17.40;4.10;;;;;;;-0.96;75.87;100147.04;77911;1305;3052478;-68
2024/02/26 04:04:55;;;;;;;11.40;4.00;;;;;;;-0.93;75.64;100156.83;79086;1305;3018556;-73
2024/02/26 04:07:22;;;;;;;12.50;4.00;;;;;;;-0.91;75.62;100160.44;79118;1303;3011240;-70
2024/02/26 04:09:50;;;;;;;22.30;4.40;;;;;;;-0.92;75.80;100161.28;77954;1302;3026333;-71
2024/02/26 04:12:16;;;;;;;14.40;4.30;;;;;;;-0.95;75.72;100165.42;79028;1303;3011664;-69
2024/02/26 04:14:43;;;;;;;14.20;4.20;;;;;;;-0.94;75.79;100160.09;79045;1305;3011810;-73
2024/02/26 04:17:11;;;;;;;8.50;4.20;;;;;;;-0.92;75.63;100160.95;77851;1305;3028661;-73
2024/02/26 04:19:37;;;;;;;17.90;5.00;;;;;;;-0.89;75.42;100159.05;79057;1303;3018547;-70
2024/02/26 04:22:04;;;;;;;11.80;4.90;;;;;;;-0.91;75.32;100155.80;79035;1301;3011695;-73
2024/02/26 04:24:32;;;;;;;13.90;4.20;;;;;;;-0.90;75.46;100153.20;77960;1303;3027473;-65
2024/02/26 04:26:59;;;;;;;12.00;4.10;;;;;;;-0.97;75.12;100159.08;79070;1302;3013812;-75
2024/02/26 04:29:25;;;;;;;20.20;5.10;;;;;;;-0.98;75.56;100162.52;79085;1302;3011954;-73
2024/02/26 04:31:54;;;;;;;14.30;4.90;;;;;;;-0.92;75.29;100164.73;77879;1302;3026367;-72
2024/02/26 04:34:21;;;;;;;13.10;4.30;;;;;;;-0.95;75.36;100165.77;79171;1306;3013116;-73
2024/02/26 04:36:48;;;;;;;20.00;5.70;;;;;;;-1.02;75.61;100172.84;79108;1301;3011650;-73
2024/02/26 04:39:15;;;;;;;12.80;5.40;;;;;;;-1.03;75.91;100175.95;77858;1303;3057445;-72
2024/02/26 04:41:42;;;;;;;14.50;4.60;;;;;;;-1.01;75.43;100177.83;79032;1302;3020788;-72
2024/02/26 04:44:08;;;;;;;11.50;4.80;;;;;;;-0.96;75.29;100176.27;79150;1302;3011895;-69
2024/02/26 04:46:36;;;;;;;17.50;4.60;;;;;;;-1.01;75.19;100175.25;77825;1305;3026884;-72
2024/02/26 04:49:03;;;;;;;17.70;5.80;;;;;;;-1.00;75.19;100174.39;79141;1302;3013088;-73
2024/02/26 04:51:29;;;;;;;18.40;7.20;;;;;;;-0.99;75.25;100178.17;79127;1305;3011638;-70
2024/02/26 04:53:59;;;;;;;16.70;6.50;;;;;;;-0.93;75.33;100183.65;77840;1305;3026008;-73
2024/02/26 04:56:28;;;;;;;21.30;5.60;;;;;;;-0.89;75.28;100187.27;79151;1303;3012782;-73
2024/02/26 04:58:57;;;;;;;16.00;4.60;;;;;;;-0.87;75.13;100187.60;77903;1302;3026803;-70
2024/02/26 05:01:24;;;;;;;9.00;3.90;;;;;;;-0.86;74.55;100183.81;79084;1303;3011677;-73
2024/02/26 05:03:52;;;;;;;14.30;4.10;;;;;;;-0.82;74.52;100188.28;79073;1306;3012970;-73
2024/02/26 05:06:20;;;;;;;9.10;3.60;;;;;;;-0.84;74.46;100184.33;77937;1309;3069201;-71
2024/02/26 05:08:46;;;;;;;9.70;3.90;;;;;;;-0.83;74.35;100182.95;79118;1303;3011660;-71
2024/02/26 05:11:13;;;;;;;11.00;5.30;;;;;;;-0.77;74.52;100180.01;79019;1306;3011641;-72
2024/02/26 05:13:41;;;;;;;14.90;5.50;;;;;;;-0.77;74.35;100175.02;77854;1305;3028323;-68
2024/02/26 05:16:07;;;;;;;17.90;5.90;;;;;;;-0.77;74.19;100179.83;79262;1305;3018501;-69
2024/02/26 05:18:34;;;;;;;17.90;6.10;;;;;;;-0.76;74.45;100177.77;79124;1305;3011659;-68
2024/02/26 05:21:03;;;;;;;8.70;4.90;;;;;;;-0.79;74.39;100172.96;78007;1305;3027944;-69
2024/02/26 05:23:30;;;;;;;12.20;3.90;;;;;;;-0.80;74.23;100172.11;79165;1300;3014124;-70
2024/02/26 05:25:56;;;;;;;16.00;4.60;;;;;;;-0.76;73.96;100177.08;79098;1305;3011829;-66
2024/02/26 05:28:24;;;;;;;8.40;4.10;;;;;;;-0.69;73.98;100174.14;77905;1301;3052243;-71
2024/02/26 05:30:51;;;;;;;13.60;4.30;;;;;;;-0.69;73.79;100165.88;79135;1302;3013371;-69
2024/02/26 05:33:17;;;;;;;18.80;4.70;;;;;;;-0.73;73.55;100173.63;79370;1305;3011574;-70
2024/02/26 05:35:45;;;;;;;13.30;5.60;;;;;;;-0.72;74.16;100176.73;78018;1300;3027659;-71
2024/02/26 05:38:12;;;;;;;15.00;5.70;;;;;;;-0.63;73.50;100183.58;79255;1300;3018816;-69
2024/02/26 05:40:38;;;;;;;11.80;4.90;;;;;;;-0.59;73.72;100185.11;79282;1300;3013697;-68
2024/02/26 05:43:06;;;;;;;11.90;5.30;;;;;;;-0.55;73.55;100183.20;77953;1303;3026967;-72
2024/02/26 05:45:33;;;;;;;10.00;5.00;;;;;;;-0.59;73.20;100179.42;79112;1305;3015366;-70
2024/02/26 05:48:00;;;;;;;15.30;4.70;;;;;;;-0.61;73.62;100178.77;79072;1303;3011581;-71
2024/02/26 05:50:30;;;;;;;15.60;4.40;;;;;;;-0.58;73.79;100178.91;77937;1304;3026111;-70
2024/02/26 05:52:58;;;;;;;15.00;5.40;;;;;;;-0.65;73.53;100179.45;79190;1302;3013358;-71
2024/02/26 05:55:28;;;;;;;9.40;4.40;;;;;;;-0.67;73.31;100180.14;77887;1300;3055220;-73
2024/02/26 05:57:55;;;;;;;16.20;5.60;;;;;;;-0.70;73.38;100179.98;79263;1300;3013110;-68
2024/02/26 06:00:22;;;;;;;14.80;5.20;;;;;;;-0.60;72.91;100180.48;79156;1305;3011813;-74
2024/02/26 06:02:50;;;;;;;14.90;5.80;;;;;;;-0.65;73.06;100178.08;77982;1305;3026555;-71
2024/02/26 06:05:17;;;;;;;16.70;6.00;;;;;;;-0.60;72.73;100178.06;79104;1300;3013136;-73
2024/02/26 06:07:43;;;;;;;11.20;4.60;;;;;;;-0.63;72.90;100177.71;79043;1300;3011823;-72
2024/02/26 06:10:13;;;;;;;20.40;6.00;;;;;;;-0.56;72.85;100179.26;77951;1304;3026422;-72
2024/02/26 06:12:40;;;;;;;9.90;4.80;;;;;;;-0.54;72.80;100179.94;79174;1300;3012011;-69
2024/02/26 06:15:08;;;;;;;17.40;6.00;;;;;;;-0.47;72.71;100183.35;79084;1301;3012902;-69
2024/02/26 06:17:36;;;;;;;20.40;8.30;;;;;;;-0.45;72.38;100185.23;78288;1306;3051549;-72
2024/02/26 06:20:06;;;;;;;22.30;8.40;;;;;;;-0.47;72.43;100185.58;79403;1302;3013122;-68
2024/02/26 06:22:35;;;;;;;14.00;7.20;;;;;;;-0.44;72.34;100184.71;78752;1300;3011938;-72
2024/02/26 06:25:01;;;;;;;19.60;6.20;;;;;;;-0.38;72.10;100190.02;79427;1300;3014653;-70
2024/02/26 06:27:28;;;;;;;15.90;7.60;;;;;;;-0.36;71.90;100192.08;79480;1302;3012383;-72
2024/02/26 06:29:56;;;;;;;16.30;6.90;;;;;;;-0.28;71.84;100194.63;78020;1303;3026629;-69
2024/02/26 06:32:23;;;;;;;20.80;7.60;;;;;;;-0.23;71.54;100198.55;79292;1306;3013440;-70
2024/02/26 06:34:49;;;;;;;14.80;5.90;;;;;;;-0.20;71.32;100199.41;79310;1305;3011688;-70
2024/02/26 06:37:17;;;;;;;17.60;6.30;;;;;;;-0.15;71.34;100203.86;78408;1300;3068931;-70
2024/02/26 06:39:44;;;;;;;21.70;8.00;;;;;;;0.02;70.89;100208.09;79327;1300;3014506;-71
2024/02/26 06:42:11;;;;;;;14.10;6.00;;;;;;;0.10;70.81;100209.58;79098;1300;3011920;-74
2024/02/26 06:44:40;;;;;;;16.30;6.80;;;;;;;0.08;70.74;100209.42;77869;1305;3026012;-73
2024/02/26 06:47:06;;;;;;;17.60;6.80;;;;;;;0.09;70.53;100205.98;79138;1306;3013530;-72
2024/02/26 06:49:33;;;;;;;17.60;5.80;;;;;;;0.19;70.19;100206.25;79221;1306;3011815;-71
2024/02/26 06:52:01;;;;;;;18.30;6.00;;;;;;;0.21;70.49;100205.20;78005;1302;3068272;-68
2024/02/26 06:54:27;;;;;;;25.30;7.00;;;;;;;0.25;69.84;100209.15;79124;1300;3013147;-72
2024/02/26 06:56:54;;;;;;;10.90;5.70;;;;;;;0.18;69.89;100207.47;79238;1300;3011392;-73
2024/02/26 06:59:23;;;;;;;25.10;6.10;;;;;;;0.21;69.99;100198.83;78085;1300;3026014;-71
2024/02/26 07:01:50;;;;;;;14.80;5.20;;;;;;;0.20;69.96;100202.63;79215;1306;3013651;-70
2024/02/26 07:04:16;;;;;;;16.20;4.70;;;;;;;0.22;70.06;100204.52;79214;1305;3011792;-69
2024/02/26 07:06:46;;;;;;;12.30;5.00;;;;;;;0.26;69.77;100203.80;78022;1300;3068026;-70
2024/02/26 07:09:13;;;;;;;16.00;4.20;;;;;;;0.25;69.89;100198.81;79278;1306;3013340;-72
2024/02/26 07:11:41;;;;;;;13.10;4.30;;;;;;;0.22;69.53;100204.00;79522;1302;3011480;-71
2024/02/26 07:14:10;;;;;;;14.30;4.80;;;;;;;0.30;69.76;100206.70;77972;1300;3052683;-71
2024/02/26 07:16:37;;;;;;;10.20;4.70;;;;;;;0.42;69.30;100210.58;79155;1309;3013499;-69
2024/02/26 07:19:03;;;;;;;12.80;4.80;;;;;;;0.48;69.20;100206.41;79388;1305;3012865;-70
2024/02/26 07:21:31;;;;;;;18.20;4.40;;;;;;;0.47;69.02;100205.73;78049;1306;3069546;-70
2024/02/26 07:23:59;;;;;;;11.50;4.00;;;;;;;0.54;68.75;100207.05;79291;1300;3013035;-73
2024/02/26 07:26:26;;;;;;;13.30;4.60;;;;;;;0.67;68.47;100209.52;79262;1300;3011533;-69
2024/02/26 07:28:54;;;;;;;12.30;4.50;;;;;;;0.82;68.19;100206.81;78056;1300;3053101;-71
2024/02/26 07:31:20;;;;;;;11.60;5.00;;;;;;;0.84;67.65;100206.45;79162;1305;3013577;-75
2024/02/26 07:33:47;;;;;;;19.20;5.20;;;;;;;0.79;67.70;100211.67;79181;1306;3013640;-70
2024/02/26 07:36:15;;;;;;;14.70;5.90;;;;;;;0.72;68.01;100210.70;77972;1305;3026706;-73
2024/02/26 07:38:41;;;;;;;11.30;4.60;;;;;;;0.72;68.25;100202.94;79254;1300;3013262;-74
2024/02/26 07:41:08;;;;;;;15.10;4.90;;;;;;;0.75;67.43;100204.30;79408;1302;3011785;-72
2024/02/26 07:43:36;;;;;;;11.70;5.00;;;;;;;0.81;67.67;100209.59;78060;1305;3028283;-75
2024/02/26 07:46:03;;;;;;;11.40;5.40;;;;;;;0.92;67.57;100206.23;79317;1305;3013096;-72
2024/02/26 07:48:30;;;;;;;21.40;5.80;;;;;;;1.06;67.18;100205.04;79481;1303;3011849;-73
2024/02/26 07:50:59;;;;;;;13.90;5.10;;;;;;;1.21;67.01;100203.34;78044;1304;3025772;-71
2024/02/26 07:53:26;;;;;;;11.20;5.00;;;;;;;1.25;66.20;100205.20;79375;1300;3013281;-75
2024/02/26 07:55:53;;;;;;;14.90;5.00;;;;;;;1.20;66.38;100195.41;79329;1300;3011736;-73
2024/02/26 07:58:22;;;;;;;12.70;4.70;;;;;;;1.18;66.49;100195.61;78108;1300;3053460;-71
2024/02/26 08:00:48;;;;;;;12.10;4.60;;;;;;;1.36;66.09;100194.38;79278;1303;3016109;-71
2024/02/26 08:03:15;;;;;;;10.80;4.50;;;;;;;1.29;66.07;100195.66;79180;1302;3011559;-72
2024/02/26 08:05:43;;;;;;;14.30;4.40;;;;;;;1.38;65.94;100194.19;78060;1304;3069832;-73
2024/02/26 08:08:10;;;;;;;8.70;3.70;;;;;;;1.42;65.88;100190.33;79326;1304;3018358;-72
2024/02/26 08:10:37;;;;;;;18.60;5.70;;;;;;;1.50;65.80;100193.52;79370;1300;3013137;-72
2024/02/26 08:13:05;;;;;;;15.00;5.10;;;;;;;1.63;65.29;100191.64;78047;1302;3026745;-70
2024/02/26 08:15:34;;;;;;;14.60;4.50;;;;;;;1.58;65.52;100191.71;79302;1304;3013451;-70
2024/02/26 08:18:03;;;;;;;18.40;5.30;;;;;;;1.67;65.53;100188.82;78752;1304;3011885;-71
2024/02/26 08:20:30;;;;;;;14.20;4.90;;;;;;;1.74;65.34;100186.85;79291;1303;3013688;-71
2024/02/26 08:22:57;;;;;;;15.40;5.10;;;;;;;1.75;64.86;100186.48;79298;1300;3013351;-72
2024/02/26 08:25:25;;;;;;;18.20;5.10;;;;;;;1.92;64.70;100184.88;78069;1303;3056488;-69
2024/02/26 08:27:52;;;;;;;21.60;5.80;;;;;;;2.04;64.07;100189.55;79257;1300;3014815;-70
2024/02/26 08:30:18;;;;;;;23.70;5.00;;;;;;;2.15;63.94;100188.69;79133;1302;3011672;-68
2024/02/26 08:32:47;;;;;;;11.50;5.50;;;;;;;2.25;63.63;100184.23;77943;1305;3026641;-70
2024/02/26 08:35:14;;;;;;;8.90;4.00;;;;;;;2.40;63.34;100181.92;79147;1305;3013513;-72
2024/02/26 08:37:44;;;;;;;9.20;4.60;;;;;;;2.41;62.97;100179.67;79132;1300;3011750;-70
2024/02/26 08:40:12;;;;;;;8.90;4.90;;;;;;;2.46;62.91;100177.16;77974;1303;3056726;-71
2024/02/26 08:42:39;;;;;;;16.80;5.70;;;;;;;2.53;62.70;100181.38;79204;1303;3013172;-71
2024/02/26 08:45:07;;;;;;;13.10;5.20;;;;;;;2.55;62.51;100176.85;79311;1303;3012819;-70
2024/02/26 08:47:36;;;;;;;12.90;4.70;;;;;;;2.70;62.18;100171.05;78125;1306;3052058;-69
2024/02/26 08:50:04;;;;;;;10.50;4.60;;;;;;;2.69;61.78;100175.75;79163;1305;3012895;-70
2024/02/26 08:52:31;;;;;;;10.70;4.00;;;;;;;2.74;61.61;100178.44;79186;1300;3013353;-71
2024/02/26 08:54:59;;;;;;;13.30;5.60;;;;;;;2.84;61.75;100181.73;77877;1305;3056847;-71
2024/02/26 08:57:28;;;;;;;13.90;4.70;;;;;;;2.90;61.41;100186.30;79328;1300;3018746;-71
2024/02/26 08:59:58;;;;;;;12.00;5.00;;;;;;;3.02;61.15;100191.11;78614;1306;3011643;-70
2024/02/26 09:02:25;;;;;;;13.00;5.20;;;;;;;3.07;61.17;100193.96;79492;1300;3012933;-70
2024/02/26 09:04:54;;;;;;;16.10;5.90;;;;;;;3.19;60.48;100192.70;79094;1303;3011350;-72
2024/02/26 09:07:22;;;;;;;10.60;5.30;;;;;;;3.35;60.17;100187.37;78115;1303;3069028;-72
2024/02/26 09:09:50;;;;;;;9.90;4.50;;;;;;;3.43;59.83;100189.30;79138;1306;3013349;-73
2024/02/26 09:12:17;;;;;;;32.50;6.10;;;;;;;3.45;59.61;100186.30;79348;1303;3011467;-74
2024/02/26 09:14:45;;;;;;;18.40;4.90;;;;;;;3.57;59.28;100187.80;78162;1300;3053584;-74
2024/02/26 09:17:11;;;;;;;12.40;4.40;;;;;;;3.65;58.80;100187.83;79241;1303;3013711;-74
2024/02/26 09:19:38;;;;;;;13.40;5.30;;;;;;;3.76;58.60;100184.65;79163;1306;3011596;-73
2024/02/26 09:22:06;;;;;;;9.50;4.90;;;;;;;3.95;58.16;100186.66;78024;1300;3028637;-74
2024/02/26 09:24:33;;;;;;;19.90;6.00;;;;;;;3.95;58.05;100186.48;79221;1303;3013075;-75
2024/02/26 09:27:00;;;;;;;13.90;5.30;;;;;;;3.97;57.94;100186.27;79338;1302;3014194;-73
2024/02/26 09:29:29;;;;;;;20.20;5.70;;;;;;;4.07;57.87;100182.58;78064;1305;3026589;-73
2024/02/26 09:31:55;;;;;;;13.10;4.80;;;;;;;4.02;58.16;100188.94;79292;1303;3013075;-73
2024/02/26 09:34:22;;;;;;;13.40;5.50;;;;;;;4.05;57.88;100189.03;79110;1305;3011836;-73
2024/02/26 09:36:49;;;;;;;15.50;5.60;;;;;;;4.05;57.84;100189.57;78005;1303;3026886;-71
2024/02/26 09:39:21;;;;;;;20.10;6.60;;;;;;;4.11;57.65;100191.86;79313;1300;3016217;-73
2024/02/26 09:41:50;;;;;;;16.50;5.30;;;;;;;4.17;57.40;100187.39;77863;1303;3049524;-70
2024/02/26 09:44:20;;;;;;;15.10;4.90;;;;;;;4.25;57.52;100185.99;79128;1305;3013076;-73
2024/02/26 09:46:52;;;;;;;13.50;5.20;;;;;;;4.41;57.37;100184.40;78617;1305;3011781;-69
2024/02/26 09:49:20;;;;;;;22.20;6.40;;;;;;;4.47;56.93;100182.70;79491;1305;3012837;-70
2024/02/26 09:51:49;;;;;;;21.90;7.10;;;;;;;4.65;56.61;100181.73;77939;1303;3027144;-71
2024/02/26 09:54:17;;;;;;;22.70;6.20;;;;;;;4.66;56.38;100179.30;79458;1300;3015405;-71
2024/02/26 09:56:45;;;;;;;13.40;5.10;;;;;;;4.68;56.12;100172.65;78059;1306;3027527;-71
2024/02/26 09:59:15;;;;;;;12.90;6.20;;;;;;;4.78;56.05;100167.55;79194;1303;3013158;-70
2024/02/26 10:01:44;;;;;;;11.90;4.90;;;;;;;4.87;55.91;100163.85;78585;1300;3011801;-70
2024/02/26 10:04:11;;;;;;;15.00;5.30;;;;;;;5.01;55.56;100158.42;79311;1303;3019042;-70
2024/02/26 10:06:38;;;;;;;18.60;5.80;;;;;;;5.23;54.92;100160.64;79134;1305;3013298;-73
2024/02/26 10:09:06;;;;;;;21.70;6.70;;;;;;;5.40;54.62;100162.56;77950;1305;3026014;-70
2024/02/26 10:11:33;;;;;;;27.50;7.20;;;;;;;5.52;53.99;100161.91;79113;1302;3013729;-70
2024/02/26 10:14:00;;;;;;;22.50;7.40;;;;;;;5.59;53.83;100166.73;79217;1300;3013367;-70
2024/02/26 10:16:28;;;;;;;22.70;5.70;;;;;;;5.71;53.81;100156.83;78069;1303;3049752;-73
2024/02/26 10:18:55;;;;;;;28.10;6.60;;;;;;;5.84;52.78;100157.66;79215;1308;3013423;-70
2024/02/26 10:21:22;;;;;;;19.10;5.70;;;;;;;5.90;52.61;100143.60;79209;1304;3012917;-68
2024/02/26 10:23:52;;;;;;;23.00;6.40;;;;;;;5.93;52.49;100141.76;77984;1304;3052158;-70
2024/02/26 10:26:19;;;;;;;22.80;6.20;;;;;;;6.04;52.47;100137.10;79227;1300;3012069;-71
2024/02/26 10:28:48;;;;;;;16.40;4.60;;;;;;;6.22;51.96;100134.08;78695;1300;3012884;-72
2024/02/26 10:31:15;;;;;;;25.50;6.40;;;;;;;6.18;51.75;100125.53;79203;1302;3019165;-72
2024/02/26 10:33:42;;;;;;;14.30;5.30;;;;;;;6.24;51.68;100130.19;79140;1303;3012046;-70
2024/02/26 10:36:10;;;;;;;16.70;6.00;;;;;;;6.36;51.22;100124.24;77930;1303;3050147;-72
2024/02/26 10:38:37;;;;;;;17.60;5.40;;;;;;;6.46;51.28;100126.36;79227;1306;3013098;-73
2024/02/26 10:41:12;;;;;;;18.60;5.60;;;;;;;6.39;51.24;100117.54;79199;1301;3012027;-72
2024/02/26 10:43:41;;;;;;;10.30;5.10;;;;;;;6.57;50.96;100121.81;78065;1300;3053429;-71
2024/02/26 10:46:08;;;;;;;22.70;5.70;;;;;;;6.69;50.62;100120.88;79230;1301;3015867;-71
2024/02/26 10:48:35;;;;;;;15.50;5.30;;;;;;;6.76;50.47;100116.13;79180;1300;3011596;-73
2024/02/26 10:51:03;;;;;;;18.10;5.90;;;;;;;6.80;50.27;100113.37;77934;1305;3048734;-74
2024/02/26 10:53:32;;;;;;;17.30;5.40;;;;;;;6.90;50.07;100113.38;79112;1300;3013906;-69
2024/02/26 10:56:03;;;;;;;21.40;6.10;;;;;;;7.02;49.79;100112.42;78570;1300;3011862;-71
2024/02/26 10:58:31;;;;;;;21.60;5.50;;;;;;;7.09;49.50;100105.05;79363;1301;3011758;-70
2024/02/26 11:01:00;;;;;;;24.40;5.70;;;;;;;7.19;49.21;100103.96;78820;1300;3013159;-72
2024/02/26 11:03:26;;;;;;;18.40;6.10;;;;;;;7.14;49.06;100104.52;79420;1302;3013598;-72
2024/02/26 11:05:53;;;;;;;14.10;5.20;;;;;;;7.19;49.06;100096.64;79030;1306;3011857;-69
2024/02/26 11:08:21;;;;;;;14.20;4.20;;;;;;;7.25;48.75;100090.34;75122;1305;6736763;-72